Austonio, Texas
Current Conditions -  °F | °C
As of 6:15 PM on Thursday 18 Dec 2014 (Local Time) from KDKR Reporting Station
Overcast Overcast  
Wind Chill: 14°   Ceiling: 500
Heat Index: 14°   Visibility: NA
Dew Point: 13°   Wind: 5mph
Humidity: 94%   Direction: 40°NE
Pressure: 30.13"   Gusts: NA
Location:  31.2828°N, 95.4821°W
Report Text: KDKR 190015Z AUTO 04004KT OVC005 14/13 A3013 RMK AO2
Loading
Personal Weather Stations






























Interactive Weather Map New forecast layout! Learn more

10-Day Weather Forecast

Advertisements
Track Severe Weather on mobile